ESPA

Luleå Airport

Luleå, Sweden
METAR ESPA 212320Z AUTO 01003KT 9999 NCD 09/06 Q1002
Observed Flight Rules
Jun-21 @ 23:20 UTC (36 minutes ago) Visual Flight Rules
Wind Visibility Clouds
10° at 3 knots 10,000+ meters
  • Clear skies
Temperatures Readings
Current 9°C / 48°F
Dewpoint 6°C / 43°F
Humidity 82%
Altimeter 29.59" Hg
Pressure 1002 hPa
Elevation 34
METAR ESPA 212320Z AUTO 01003KT 9999 NCD 09/06 Q1002
Observed Flight Rules
Jun-21 @ 23:20 UTC
(36 minutes ago)
VFR
Wind Visibility
10° at 3 knots 10,000+ meters
Clouds
  • Clear skies
Temperature Dewpoint
9°C / 48°F 6°C / 43°F
Humidity Altimeter Pressure
82% 29.59" Hg 1002 hPa